Time;durP1;ratioP1;P1;durP2;ratioP2;P2;SDS_P1;SDS_P2;PMS_P1;PMS_P2;Temp;Humidity;BMP_temperature;BMP_pressure;BME280_temperature;BME280_humidity;BME280_pressure;Samples;Min_cycle;Max_cycle;Signal;HPM_P1;HPM_P2
2023/04/24 00:02:10;;;;;;;0.00;0.00;;;;;;;5.58;100.00;99462.00;6249430;22;20045;-75
2023/04/24 00:04:40;;;;;;;0.00;0.00;;;;;;;5.56;100.00;99457.91;6249114;22;20058;-75
2023/04/24 00:07:06;;;;;;;0.10;0.10;;;;;;;5.49;100.00;99444.56;6245941;22;20012;-74
2023/04/24 00:09:32;;;;;;;0.00;0.00;;;;;;;5.42;100.00;99442.06;6225566;22;20031;-75
2023/04/24 00:11:58;;;;;;;0.00;0.00;;;;;;;5.45;100.00;99454.28;6242474;22;20667;-75
2023/04/24 00:14:23;;;;;;;0.00;0.00;;;;;;;5.41;100.00;99456.69;6246668;22;20037;-77
2023/04/24 00:16:49;;;;;;;0.00;0.00;;;;;;;5.41;100.00;99451.25;6222408;22;20054;-76
2023/04/24 00:19:14;;;;;;;0.00;0.00;;;;;;;5.38;100.00;99459.91;6244184;22;20547;-75
2023/04/24 00:21:40;;;;;;;0.00;0.00;;;;;;;5.39;100.00;99464.25;6247382;22;20023;-74
2023/04/24 00:24:08;;;;;;;0.00;0.00;;;;;;;5.43;100.00;99467.25;6240845;22;20012;-76
2023/04/24 00:26:34;;;;;;;0.00;0.00;;;;;;;5.49;100.00;99473.56;6191463;22;20431;-74
2023/04/24 00:29:00;;;;;;;0.00;0.00;;;;;;;5.53;100.00;99477.41;6213539;22;20012;-75
2023/04/24 00:31:25;;;;;;;0.00;0.00;;;;;;;5.51;100.00;99471.44;6241650;22;19999;-74
2023/04/24 00:33:51;;;;;;;0.00;0.00;;;;;;;5.42;100.00;99462.94;6241372;22;20082;-74
2023/04/24 00:36:16;;;;;;;0.00;0.00;;;;;;;5.47;100.00;99481.16;6187729;22;20015;-74
2023/04/24 00:38:41;;;;;;;0.00;0.00;;;;;;;5.41;100.00;99488.41;6270905;22;20012;-75
2023/04/24 00:41:07;;;;;;;0.00;0.00;;;;;;;5.25;100.00;99492.84;6187601;22;20012;-74
2023/04/24 00:43:32;;;;;;;0.00;0.00;;;;;;;5.19;100.00;99496.56;6242915;22;20089;-75
2023/04/24 00:45:59;;;;;;;0.00;0.00;;;;;;;5.12;100.00;99496.75;6213945;22;20007;-75
2023/04/24 00:48:25;;;;;;;0.10;0.10;;;;;;;5.13;100.00;99503.00;6218875;22;20096;-73
2023/04/24 00:50:50;;;;;;;0.00;0.00;;;;;;;5.11;100.00;99510.56;6241952;22;20633;-74
2023/04/24 00:53:16;;;;;;;0.00;0.00;;;;;;;5.00;100.00;99491.47;6216645;22;20015;-75
2023/04/24 00:55:41;;;;;;;0.00;0.00;;;;;;;4.97;100.00;99494.69;6191407;22;20012;-75
2023/04/24 00:58:07;;;;;;;0.00;0.00;;;;;;;5.01;100.00;99506.66;6190592;22;20508;-76
2023/04/24 01:00:35;;;;;;;0.00;0.00;;;;;;;4.98;100.00;99509.88;6220901;22;20012;-75
2023/04/24 01:03:04;;;;;;;0.00;0.00;;;;;;;4.92;100.00;99497.34;6241362;22;20429;-74
2023/04/24 01:05:29;;;;;;;0.00;0.00;;;;;;;4.87;100.00;99489.13;6245036;22;20054;-74
2023/04/24 01:07:55;;;;;;;0.00;0.00;;;;;;;4.90;100.00;99496.75;6244417;22;20004;-75
2023/04/24 01:10:23;;;;;;;0.00;0.00;;;;;;;4.84;100.00;99501.28;6216503;22;20038;-75
2023/04/24 01:12:48;;;;;;;0.00;0.00;;;;;;;4.87;100.00;99510.81;6243240;22;19991;-75
2023/04/24 01:15:14;;;;;;;0.10;0.10;;;;;;;4.82;100.00;99502.59;6219067;22;20004;-76
2023/04/24 01:17:42;;;;;;;0.00;0.00;;;;;;;4.74;100.00;99497.63;6215836;22;20042;-77
2023/04/24 01:20:08;;;;;;;0.00;0.00;;;;;;;4.69;100.00;99504.59;6225233;22;20019;-76
2023/04/24 01:22:34;;;;;;;0.00;0.00;;;;;;;4.59;100.00;99509.88;6222792;22;20377;-75
2023/04/24 01:25:00;;;;;;;0.00;0.00;;;;;;;4.55;100.00;99514.94;6275198;22;20007;-76
2023/04/24 01:27:27;;;;;;;0.00;0.00;;;;;;;4.44;100.00;99509.63;6269722;22;20077;-75
2023/04/24 01:29:53;;;;;;;0.00;0.00;;;;;;;4.39;100.00;99512.28;6272037;22;20003;-76
2023/04/24 01:32:19;;;;;;;0.00;0.00;;;;;;;4.31;100.00;99514.34;6222728;22;20064;-76
2023/04/24 01:34:46;;;;;;;0.00;0.00;;;;;;;4.25;100.00;99520.75;6301716;22;20007;-75
2023/04/24 01:37:11;;;;;;;0.00;0.00;;;;;;;4.22;100.00;99518.53;6250315;22;20038;-75
2023/04/24 01:39:37;;;;;;;0.00;0.00;;;;;;;4.23;100.00;99517.44;6271456;22;20445;-76
2023/04/24 01:42:02;;;;;;;0.00;0.00;;;;;;;4.23;100.00;99524.75;6273837;22;20007;-75
2023/04/24 01:44:28;;;;;;;0.00;0.00;;;;;;;4.18;100.00;99520.09;6272085;22;20072;-75
2023/04/24 01:46:56;;;;;;;0.00;0.00;;;;;;;4.05;100.00;99501.47;6271455;22;20090;-75
2023/04/24 01:49:22;;;;;;;0.00;0.00;;;;;;;4.04;100.00;99497.94;6296726;22;20303;-74
2023/04/24 01:51:47;;;;;;;0.00;0.00;;;;;;;4.12;100.00;99510.25;6276070;22;20034;-75
2023/04/24 01:54:13;;;;;;;0.00;0.00;;;;;;;4.20;100.00;99523.34;6274861;22;20003;-75
2023/04/24 01:56:43;;;;;;;0.00;0.00;;;;;;;4.33;100.00;99527.63;6245735;22;20429;-74
2023/04/24 01:59:12;;;;;;;0.00;0.00;;;;;;;4.34;100.00;99529.28;6275686;22;20006;-75
2023/04/24 02:01:45;;;;;;;0.00;0.00;;;;;;;4.29;100.00;99519.19;6254315;22;20019;-75
2023/04/24 02:04:11;;;;;;;0.00;0.00;;;;;;;4.34;100.00;99532.78;6244678;22;20825;-74
2023/04/24 02:06:37;;;;;;;0.00;0.00;;;;;;;4.44;100.00;99523.19;6194593;22;20425;-75
2023/04/24 02:09:05;;;;;;;0.00;0.00;;;;;;;4.55;100.00;99527.69;6189634;22;20090;-74
2023/04/24 02:11:31;;;;;;;0.00;0.00;;;;;;;4.59;100.00;99522.59;6221099;22;20011;-75
2023/04/24 02:13:56;;;;;;;0.00;0.00;;;;;;;4.64;100.00;99523.47;6189164;22;20000;-73
2023/04/24 02:16:22;;;;;;;0.00;0.00;;;;;;;4.63;100.00;99529.97;6196049;22;20049;-74
2023/04/24 02:18:47;;;;;;;0.00;0.00;;;;;;;4.59;100.00;99528.03;6215717;22;20480;-76
2023/04/24 02:21:12;;;;;;;0.00;0.00;;;;;;;4.63;100.00;99543.53;6266628;22;20031;-75
2023/04/24 02:23:38;;;;;;;0.00;0.00;;;;;;;4.65;100.00;99541.38;6244389;22;20018;-75
2023/04/24 02:26:03;;;;;;;0.00;0.00;;;;;;;4.71;100.00;99545.78;6241753;22;20019;-74
2023/04/24 02:28:29;;;;;;;0.00;0.00;;;;;;;4.84;100.00;99546.53;6268903;22;20118;-75
2023/04/24 02:30:54;;;;;;;0.00;0.00;;;;;;;4.97;100.00;99558.91;6240122;22;20039;-75
2023/04/24 02:33:20;;;;;;;0.00;0.00;;;;;;;5.02;100.00;99550.81;6243209;22;20066;-76
2023/04/24 02:35:45;;;;;;;0.00;0.00;;;;;;;5.02;100.00;99557.09;6218343;22;20003;-77
2023/04/24 02:38:11;;;;;;;0.00;0.00;;;;;;;4.95;100.00;99561.03;6243427;22;20065;-77
2023/04/24 02:40:36;;;;;;;0.00;0.00;;;;;;;4.84;100.00;99560.06;6221485;22;20011;-76
2023/04/24 02:43:01;;;;;;;0.00;0.00;;;;;;;4.75;100.00;99561.56;6294845;22;20015;-74
2023/04/24 02:45:27;;;;;;;0.00;0.00;;;;;;;4.69;100.00;99579.63;6243439;22;20019;-75
2023/04/24 02:47:52;;;;;;;0.00;0.00;;;;;;;4.56;100.00;99567.25;6264501;22;20348;-75
2023/04/24 02:50:18;;;;;;;0.00;0.00;;;;;;;4.57;100.00;99577.00;6268086;22;20011;-74
2023/04/24 02:52:43;;;;;;;0.00;0.00;;;;;;;4.55;100.00;99587.25;6240890;22;20037;-75
2023/04/24 02:55:09;;;;;;;0.00;0.00;;;;;;;4.47;100.00;99587.69;6242760;22;20004;-76
2023/04/24 02:57:35;;;;;;;0.00;0.00;;;;;;;4.45;100.00;99578.97;6271785;22;20182;-74
2023/04/24 03:00:00;;;;;;;0.00;0.00;;;;;;;4.45;100.00;99585.19;6239673;22;20086;-75
2023/04/24 03:02:25;;;;;;;0.00;0.00;;;;;;;4.47;100.00;99590.41;6242350;22;20496;-76
2023/04/24 03:04:51;;;;;;;0.00;0.00;;;;;;;4.51;100.00;99594.22;6270026;22;20432;-74
2023/04/24 03:07:17;;;;;;;0.00;0.00;;;;;;;4.51;100.00;99594.22;6266302;22;20046;-74
2023/04/24 03:09:42;;;;;;;0.10;0.10;;;;;;;4.47;100.00;99588.50;6218448;22;20007;-75
2023/04/24 03:12:08;;;;;;;0.10;0.10;;;;;;;4.52;100.00;99590.47;6239974;22;20829;-75
2023/04/24 03:14:33;;;;;;;0.10;0.10;;;;;;;4.51;100.00;99597.78;6244821;22;20808;-75
2023/04/24 03:16:59;;;;;;;0.00;0.00;;;;;;;4.52;100.00;99585.03;6238820;22;20012;-75
2023/04/24 03:19:25;;;;;;;0.00;0.00;;;;;;;4.58;100.00;99600.28;6218337;22;20434;-74
2023/04/24 03:21:50;;;;;;;0.00;0.00;;;;;;;4.62;100.00;99597.94;6270853;22;20034;-75
2023/04/24 03:24:15;;;;;;;0.00;0.00;;;;;;;4.64;100.00;99599.31;6217128;22;20018;-76
2023/04/24 03:26:41;;;;;;;0.00;0.00;;;;;;;4.63;100.00;99596.84;6267888;22;20003;-75
2023/04/24 03:29:07;;;;;;;0.00;0.00;;;;;;;4.39;100.00;99564.53;6268470;22;20019;-74
2023/04/24 03:31:35;;;;;;;0.00;0.00;;;;;;;4.45;100.00;99566.25;6292667;22;20008;-77
2023/04/24 03:34:00;;;;;;;0.00;0.00;;;;;;;4.56;100.00;99586.19;6238603;22;20054;-76
2023/04/24 03:36:26;;;;;;;0.00;0.00;;;;;;;4.58;100.00;99594.88;6244179;22;20571;-75
2023/04/24 03:38:54;;;;;;;0.00;0.00;;;;;;;4.61;100.00;99601.69;6265558;22;20008;-75
2023/04/24 03:41:22;;;;;;;0.00;0.00;;;;;;;4.61;100.00;99602.50;6243517;22;20004;-75
2023/04/24 03:43:50;;;;;;;0.00;0.00;;;;;;;4.54;100.00;99599.16;6265273;22;20014;-75
2023/04/24 03:46:18;;;;;;;0.00;0.00;;;;;;;4.55;100.00;99600.78;6220149;22;20004;-76
2023/04/24 03:48:43;;;;;;;0.00;0.00;;;;;;;4.52;100.00;99590.47;6290538;22;20015;-75
2023/04/24 03:51:08;;;;;;;0.00;0.00;;;;;;;4.61;100.00;99609.81;6240941;22;20014;-74
2023/04/24 03:53:34;;;;;;;0.08;0.08;;;;;;;4.53;100.00;99594.81;6240400;22;20004;-75
2023/04/24 03:55:59;;;;;;;0.00;0.00;;;;;;;4.50;100.00;99598.03;6238395;22;20338;-75
2023/04/24 03:58:25;;;;;;;0.00;0.00;;;;;;;4.40;100.00;99579.72;6242459;22;20004;-75
2023/04/24 04:00:51;;;;;;;0.00;0.00;;;;;;;4.40;100.00;99587.03;6242797;22;20026;-76
2023/04/24 04:03:16;;;;;;;0.00;0.00;;;;;;;4.32;100.00;99582.81;6247330;22;20016;-75
2023/04/24 04:05:41;;;;;;;0.00;0.00;;;;;;;4.24;100.00;99581.34;6221873;22;20016;-74
2023/04/24 04:08:07;;;;;;;0.00;0.00;;;;;;;4.18;100.00;99579.63;6238307;22;20319;-75
2023/04/24 04:10:32;;;;;;;0.00;0.00;;;;;;;4.16;100.00;99587.16;6218314;22;20386;-75
2023/04/24 04:12:58;;;;;;;0.00;0.00;;;;;;;4.15;100.00;99585.53;6212465;22;20004;-75
2023/04/24 04:15:23;;;;;;;0.00;0.00;;;;;;;4.14;100.00;99583.88;6216040;22;20012;-74
2023/04/24 04:17:49;;;;;;;0.00;0.00;;;;;;;4.10;100.00;99574.59;6262089;22;20080;-74
2023/04/24 04:20:14;;;;;;;0.00;0.00;;;;;;;4.16;100.00;99596.09;6269582;22;20019;-75
2023/04/24 04:22:40;;;;;;;0.08;0.08;;;;;;;4.26;100.00;99603.56;6267014;22;20004;-75
2023/04/24 04:25:06;;;;;;;0.00;0.00;;;;;;;4.23;100.00;99601.34;6263970;22;20026;-75
2023/04/24 04:27:32;;;;;;;0.00;0.00;;;;;;;4.09;100.00;99586.47;6267717;22;20434;-75
2023/04/24 04:30:07;;;;;;;0.00;0.00;;;;;;;4.09;100.00;99587.31;6261838;22;20003;-75
2023/04/24 04:32:35;;;;;;;0.00;0.00;;;;;;;4.01;100.00;99593.13;6268619;22;20031;-75
2023/04/24 04:35:02;;;;;;;0.00;0.00;;;;;;;4.01;100.00;99607.44;6262617;22;20008;-76
2023/04/24 04:37:36;;;;;;;0.00;0.00;;;;;;;3.90;100.00;99589.41;6267183;22;20003;-74
2023/04/24 04:40:09;;;;;;;0.00;0.00;;;;;;;3.86;100.00;99596.38;6263634;22;20039;-75
2023/04/24 04:42:34;;;;;;;0.00;0.00;;;;;;;3.88;100.00;99612.34;6293476;22;20028;-73
2023/04/24 04:45:00;;;;;;;0.00;0.00;;;;;;;3.70;100.00;99599.84;6238546;22;20023;-75
2023/04/24 04:47:26;;;;;;;0.10;0.10;;;;;;;3.70;100.00;99599.84;6239667;22;20334;-75
2023/04/24 04:49:54;;;;;;;0.00;0.00;;;;;;;3.67;100.00;99596.56;6268414;22;20303;-75
2023/04/24 04:52:20;;;;;;;0.00;0.00;;;;;;;3.88;100.00;99626.69;6289221;22;20004;-75
2023/04/24 04:54:46;;;;;;;0.00;0.00;;;;;;;3.89;100.00;99625.63;6241713;22;20069;-76
2023/04/24 04:57:11;;;;;;;0.00;0.00;;;;;;;3.89;100.00;99631.03;6212943;22;20090;-76
2023/04/24 04:59:37;;;;;;;0.00;0.00;;;;;;;3.89;100.00;99630.25;6267333;22;20413;-75
2023/04/24 05:02:02;;;;;;;0.00;0.00;;;;;;;3.89;100.00;99625.63;6264701;22;20095;-76
2023/04/24 05:04:28;;;;;;;0.00;0.00;;;;;;;3.87;100.00;99618.81;6266292;22;20094;-74
2023/04/24 05:06:53;;;;;;;0.00;0.00;;;;;;;3.81;100.00;99612.47;6267085;22;20046;-75
2023/04/24 05:09:19;;;;;;;0.00;0.00;;;;;;;3.72;100.00;99611.22;6236444;22;20004;-77
2023/04/24 05:11:49;;;;;;;0.00;0.00;;;;;;;3.67;100.00;99623.59;6269064;22;20018;-75
2023/04/24 05:14:25;;;;;;;;;;;;;;;;;;;;;
2023/04/24 05:16:53;;;;;;;0.00;0.00;;;;;;;3.60;100.00;99628.31;6263434;22;20082;-75
2023/04/24 05:19:19;;;;;;;0.10;0.10;;;;;;;3.65;100.00;99647.34;6264554;22;20027;-75
2023/04/24 05:21:45;;;;;;;0.00;0.00;;;;;;;3.65;100.00;99641.09;6216862;22;20422;-75
2023/04/24 05:24:10;;;;;;;0.00;0.00;;;;;;;3.70;100.00;99643.13;6188549;22;20007;-75
2023/04/24 05:26:36;;;;;;;0.00;0.00;;;;;;;3.78;100.00;99648.13;6241965;22;20065;-75
2023/04/24 05:29:02;;;;;;;0.00;0.00;;;;;;;3.71;100.00;99629.34;6241088;22;20105;-76
2023/04/24 05:31:27;;;;;;;0.00;0.00;;;;;;;3.77;100.00;99638.41;6237681;22;20110;-75
2023/04/24 05:33:53;;;;;;;0.00;0.00;;;;;;;3.94;100.00;99668.19;6239746;22;20000;-76
2023/04/24 05:36:18;;;;;;;0.00;0.00;;;;;;;3.87;100.00;99648.56;6217320;22;20008;-78
2023/04/24 05:38:44;;;;;;;0.00;0.00;;;;;;;3.93;100.00;99659.25;6210667;22;20007;-74
2023/04/24 05:41:11;;;;;;;0.00;0.00;;;;;;;4.08;100.00;99676.84;6217225;22;20011;-76
2023/04/24 05:43:37;;;;;;;0.10;0.10;;;;;;;4.09;100.00;99673.91;6237053;22;20015;-76
2023/04/24 05:46:02;;;;;;;0.00;0.00;;;;;;;4.15;100.00;99682.94;6191118;22;20011;-75
2023/04/24 05:48:28;;;;;;;0.00;0.00;;;;;;;4.15;100.00;99677.53;6188704;22;20004;-75
2023/04/24 05:50:53;;;;;;;0.00;0.00;;;;;;;4.19;100.00;99673.25;6191986;22;20499;-76
2023/04/24 05:53:19;;;;;;;0.00;0.00;;;;;;;4.21;100.00;99676.56;6218448;22;20434;-75
2023/04/24 05:55:45;;;;;;;0.00;0.00;;;;;;;4.30;100.00;99683.22;6238031;22;20034;-75
2023/04/24 05:58:11;;;;;;;0.00;0.00;;;;;;;4.35;100.00;99677.91;6271307;22;19999;-77
2023/04/24 06:00:37;;;;;;;0.00;0.00;;;;;;;4.48;100.00;99693.03;6211084;22;20035;-77
2023/04/24 06:03:03;;;;;;;0.10;0.10;;;;;;;4.56;100.00;99694.50;6192290;22;20000;-75
2023/04/24 06:05:30;;;;;;;0.00;0.00;;;;;;;4.64;100.00;99696.00;6213067;22;20008;-74
2023/04/24 06:07:55;;;;;;;0.00;0.00;;;;;;;4.68;100.00;99692.53;6191802;22;20008;-74
2023/04/24 06:10:21;;;;;;;0.00;0.00;;;;;;;4.67;100.00;99679.25;6218297;22;20012;-75
2023/04/24 06:12:46;;;;;;;0.10;0.10;;;;;;;4.89;100.00;99693.72;6264212;22;20322;-76
2023/04/24 06:15:12;;;;;;;0.00;0.00;;;;;;;4.90;100.00;99678.28;6262631;22;20015;-76
2023/04/24 06:17:38;;;;;;;0.00;0.00;;;;;;;5.11;100.00;99694.84;6267157;22;20993;-75
2023/04/24 06:20:05;;;;;;;0.00;0.00;;;;;;;5.24;100.00;99694.50;6275489;22;20011;-74
2023/04/24 06:22:30;;;;;;;0.00;0.00;;;;;;;5.24;100.00;99678.22;6268577;22;20096;-75
2023/04/24 06:24:56;;;;;;;0.00;0.00;;;;;;;5.51;100.00;99699.22;6301377;22;20078;-75
2023/04/24 06:27:21;;;;;;;0.00;0.00;;;;;;;5.70;100.00;99708.72;6223324;22;20011;-77
2023/04/24 06:29:54;;;;;;;0.00;0.00;;;;;;;5.70;100.00;99681.56;6295397;22;20400;-74
2023/04/24 06:32:20;;;;;;;0.00;0.00;;;;;;;5.94;100.00;99697.59;6250296;22;20070;-76
2023/04/24 06:34:45;;;;;;;0.00;0.00;;;;;;;6.04;100.00;99708.59;6222169;22;20463;-74
2023/04/24 06:37:11;;;;;;;0.08;0.08;;;;;;;5.95;100.00;99694.63;6241440;22;20090;-75
2023/04/24 06:39:36;;;;;;;0.00;0.00;;;;;;;6.05;99.86;99704.81;6222110;22;20027;-75
2023/04/24 06:42:04;;;;;;;0.08;0.08;;;;;;;6.22;100.00;99709.34;6242417;22;20082;-76
2023/04/24 06:44:29;;;;;;;0.00;0.00;;;;;;;6.35;99.67;99700.81;6247238;22;20056;-76
2023/04/24 06:46:55;;;;;;;0.00;0.00;;;;;;;6.55;98.96;99707.53;6218555;22;20015;-75
2023/04/24 06:49:23;;;;;;;0.00;0.00;;;;;;;6.61;97.57;99701.06;6221560;22;20031;-75
2023/04/24 06:51:48;;;;;;;0.00;0.00;;;;;;;6.82;96.93;99708.31;6269940;22;20011;-78
2023/04/24 06:54:13;;;;;;;0.00;0.00;;;;;;;6.89;95.97;99701.84;6220273;22;20121;-75
2023/04/24 06:56:39;;;;;;;0.00;0.00;;;;;;;6.98;95.46;99697.59;6223261;22;20452;-82
2023/04/24 06:59:04;;;;;;;0.00;0.00;;;;;;;7.05;95.06;99706.31;6243335;22;20018;-80
2023/04/24 07:01:30;;;;;;;0.10;0.10;;;;;;;7.07;94.08;99693.28;6250898;22;20014;-84
2023/04/24 07:03:55;;;;;;;0.00;0.00;;;;;;;7.01;92.80;99693.50;6271826;22;20007;-80
2023/04/24 07:06:30;;;;;;;0.00;0.00;;;;;;;7.05;92.42;99702.78;6250260;22;20148;-79
2023/04/24 07:08:56;;;;;;;0.00;0.00;;;;;;;7.16;92.66;99702.59;6273512;22;20426;-79
2023/04/24 07:11:21;;;;;;;0.00;0.00;;;;;;;7.30;91.61;99702.13;6274326;22;20007;-81
2023/04/24 07:13:57;;;;;;;0.00;0.00;;;;;;;7.45;91.19;99704.97;6250946;22;20031;-80
2023/04/24 07:16:23;;;;;;;0.00;0.00;;;;;;;7.66;91.23;99697.72;6275619;22;19999;-81
2023/04/24 07:18:48;;;;;;;0.00;0.00;;;;;;;7.85;90.09;99717.13;6249676;22;20007;-80
2023/04/24 07:21:16;;;;;;;0.00;0.00;;;;;;;8.03;89.12;99720.47;6269921;22;20456;-79
2023/04/24 07:23:42;;;;;;;0.00;0.00;;;;;;;8.15;88.91;99710.19;6222609;22;20028;-80
2023/04/24 07:26:07;;;;;;;0.00;0.00;;;;;;;8.49;87.67;99698.88;6243547;22;20289;-80
2023/04/24 07:28:32;;;;;;;0.00;0.00;;;;;;;8.98;85.86;99708.47;6221236;22;20007;-81
2023/04/24 07:31:01;;;;;;;0.00;0.00;;;;;;;9.59;84.93;99707.56;6272875;22;20430;-79
2023/04/24 07:33:29;;;;;;;0.03;0.03;;;;;;;10.42;82.77;99712.69;6266999;22;20269;-79
2023/04/24 07:35:54;;;;;;;0.00;0.00;;;;;;;11.16;80.40;99715.44;6248269;22;20011;-82
2023/04/24 07:38:21;;;;;;;0.00;0.00;;;;;;;11.81;77.58;99720.56;6268540;22;20003;-80
2023/04/24 07:40:55;;;;;;;0.00;0.00;;;;;;;12.15;74.64;99729.75;6271414;22;20003;-81
2023/04/24 07:43:23;;;;;;;0.00;0.00;;;;;;;12.04;73.01;99729.88;6268962;22;20182;-83
2023/04/24 07:45:52;;;;;;;0.00;0.00;;;;;;;12.01;72.53;99724.97;6240802;22;20021;-80
2023/04/24 07:48:18;;;;;;;0.00;0.00;;;;;;;12.29;72.64;99744.38;6241912;22;20107;-80
2023/04/24 07:50:53;;;;;;;0.00;0.00;;;;;;;12.33;71.78;99714.47;6242530;22;20025;-81
2023/04/24 07:53:54;;;;;;;0.10;0.10;;;;;;;12.56;69.83;99745.69;6246481;22;20378;-80
2023/04/24 07:56:30;;;;;;;0.00;0.00;;;;;;;12.45;68.79;99734.00;6266615;22;20085;-79
2023/04/24 07:58:56;;;;;;;0.00;0.00;;;;;;;12.35;68.16;99717.72;6267365;22;20011;-79
2023/04/24 08:01:21;;;;;;;0.00;0.00;;;;;;;12.34;67.97;99711.41;6246261;22;20425;-78
2023/04/24 08:03:47;;;;;;;0.00;0.00;;;;;;;12.46;68.66;99707.44;6295339;22;20418;-79
2023/04/24 08:06:12;;;;;;;0.00;0.00;;;;;;;12.26;67.15;99709.31;6273775;22;20003;-78
2023/04/24 08:08:38;;;;;;;0.00;0.00;;;;;;;12.28;67.59;99723.56;6245659;22;20003;-78
2023/04/24 08:11:06;;;;;;;0.00;0.00;;;;;;;12.37;67.98;99730.03;6241464;22;20011;-78
2023/04/24 08:14:12;;;;;;;0.10;0.10;;;;;;;12.37;68.39;99710.81;6247808;22;20436;-78
2023/04/24 08:16:40;;;;;;;0.00;0.00;;;;;;;12.58;68.08;99729.72;6233912;22;20444;-78
2023/04/24 08:19:07;;;;;;;0.00;0.00;;;;;;;12.69;67.64;99706.53;6236238;22;20430;-80
2023/04/24 08:21:41;;;;;;;0.00;0.00;;;;;;;13.03;67.71;99710.94;6242194;22;20094;-80
2023/04/24 08:24:09;;;;;;;;;;;;;;;13.35;67.09;99739.53;6241136;22;20437;-78
2023/04/24 08:26:51;;;;;;;0.00;0.00;;;;;;;13.32;66.05;99728.31;6241231;22;19911;-78
2023/04/24 08:29:19;;;;;;;0.00;0.00;;;;;;;12.91;65.23;99702.34;6241040;22;20129;-77
2023/04/24 08:31:47;;;;;;;0.00;0.00;;;;;;;13.02;65.48;99714.78;6235728;22;21022;-78
2023/04/24 08:34:12;;;;;;;0.00;0.00;;;;;;;13.36;64.90;99754.91;6241944;22;20000;-78
2023/04/24 08:36:40;;;;;;;0.00;0.00;;;;;;;13.34;64.92;99737.06;6213281;22;20022;-77
2023/04/24 08:39:10;;;;;;;0.00;0.00;;;;;;;13.67;64.28;99740.59;6191416;22;20008;-77
2023/04/24 08:41:42;;;;;;;0.00;0.00;;;;;;;13.68;64.34;99728.50;6241184;22;20480;-80
2023/04/24 08:44:09;;;;;;;0.10;0.10;;;;;;;13.79;62.92;99737.34;6244050;22;20271;-77
2023/04/24 08:46:35;;;;;;;0.00;0.00;;;;;;;13.71;62.71;99743.53;6240055;22;20336;-78
2023/04/24 08:49:02;;;;;;;0.00;0.00;;;;;;;13.57;62.55;99741.59;6210197;22;20089;-77
2023/04/24 08:51:28;;;;;;;0.00;0.00;;;;;;;13.46;62.94;99750.31;6216433;22;20086;-77
2023/04/24 08:53:59;;;;;;;0.00;0.00;;;;;;;13.26;63.45;99744.06;6211621;22;20015;-78
2023/04/24 08:56:29;;;;;;;0.00;0.00;;;;;;;13.04;63.97;99730.94;6242369;22;20076;-79
2023/04/24 08:58:57;;;;;;;0.00;0.00;;;;;;;13.08;64.46;99746.53;6240279;22;20012;-78
2023/04/24 09:01:25;;;;;;;0.00;0.00;;;;;;;13.03;65.24;99710.94;6219967;22;20034;-77
2023/04/24 09:03:53;;;;;;;0.00;0.00;;;;;;;13.31;64.67;99727.47;6263776;22;20356;-79
2023/04/24 09:06:28;;;;;;;0.00;0.00;;;;;;;13.32;64.05;99712.63;6241171;22;20095;-79
2023/04/24 09:08:58;;;;;;;0.00;0.00;;;;;;;13.48;63.45;99731.59;6218806;22;20004;-77
2023/04/24 09:11:34;;;;;;;0.00;0.00;;;;;;;13.68;63.80;99723.00;6246701;22;20449;-76
2023/04/24 09:14:08;;;;;;;0.00;0.00;;;;;;;13.94;63.11;99739.81;6242086;22;20003;-76
2023/04/24 09:16:33;;;;;;;0.00;0.00;;;;;;;14.20;62.54;99727.47;6222119;22;20012;-79
2023/04/24 09:18:59;;;;;;;0.00;0.00;;;;;;;14.49;61.37;99733.44;6221104;22;20018;-80
2023/04/24 09:21:32;;;;;;;0.00;0.00;;;;;;;14.81;60.68;99733.59;6218112;22;20022;-80
2023/04/24 09:24:07;;;;;;;0.00;0.00;;;;;;;15.23;60.13;99731.47;6273509;22;19995;-78
2023/04/24 09:26:35;;;;;;;0.00;0.00;;;;;;;15.45;59.36;99727.03;6218919;22;20057;-79
2023/04/24 09:29:24;;;;;;;0.00;0.00;;;;;;;15.59;57.94;99744.28;6247007;22;20008;-81
2023/04/24 09:31:49;;;;;;;0.00;0.00;;;;;;;15.18;57.40;99726.88;6215728;22;20007;-80
2023/04/24 09:34:22;;;;;;;0.00;0.00;;;;;;;15.30;57.51;99740.09;6271829;22;20007;-78
2023/04/24 09:36:48;;;;;;;0.05;0.05;;;;;;;15.61;57.53;99746.72;6243505;22;20026;-81
2023/04/24 09:39:16;;;;;;;0.00;0.00;;;;;;;15.68;57.19;99736.06;6246847;22;20422;-77
2023/04/24 09:41:59;;;;;;;0.00;0.00;;;;;;;15.62;56.21;99734.59;6265829;22;20011;-78
2023/04/24 09:44:27;;;;;;;0.03;0.03;;;;;;;15.47;55.29;99733.84;6270652;22;20006;-77
2023/04/24 09:47:02;;;;;;;0.00;0.00;;;;;;;16.03;56.03;99739.84;6246239;22;20402;-79
2023/04/24 09:49:35;;;;;;;0.00;0.00;;;;;;;16.87;53.98;99745.34;6245281;22;20010;-79
2023/04/24 09:52:18;;;;;;;0.00;0.00;;;;;;;19.11;51.67;99754.50;6219571;22;20022;-77
2023/04/24 09:54:56;;;;;;;0.00;0.00;;;;;;;24.53;43.17;99759.66;6248041;22;20049;-80
2023/04/24 09:57:23;;;;;;;0.00;0.00;;;;;;;27.04;39.33;99759.69;6244418;22;20038;-79
2023/04/24 09:59:55;;;;;;;0.00;0.00;;;;;;;31.08;32.29;99768.22;6245662;22;20011;-77
2023/04/24 10:02:23;;;;;;;0.00;0.00;;;;;;;32.68;29.75;99773.84;6213505;22;20015;-77
2023/04/24 10:04:56;;;;;;;0.00;0.00;;;;;;;30.05;31.18;99763.22;6216903;22;20061;-79
2023/04/24 10:07:26;;;;;;;0.00;0.00;;;;;;;27.07;34.20;99747.69;6267412;22;20582;-78
2023/04/24 10:09:54;;;;;;;0.00;0.00;;;;;;;24.91;36.43;99744.66;6240801;22;20008;-77
2023/04/24 10:12:19;;;;;;;0.00;0.00;;;;;;;23.05;38.29;99751.47;6239970;22;20001;-77
2023/04/24 10:14:46;;;;;;;0.00;0.00;;;;;;;21.20;40.59;99761.25;6229330;22;20034;-77
2023/04/24 10:17:12;;;;;;;0.00;0.00;;;;;;;19.97;42.95;99735.31;6268738;22;20090;-79
2023/04/24 10:19:38;;;;;;;0.00;0.00;;;;;;;19.27;44.70;99735.25;6246859;22;20011;-79
2023/04/24 10:22:04;;;;;;;0.00;0.00;;;;;;;18.83;46.06;99728.13;6219634;22;20011;-81
2023/04/24 10:24:33;;;;;;;0.00;0.00;;;;;;;18.86;46.33;99732.22;6275132;22;20360;-79
2023/04/24 10:27:13;;;;;;;;;;;;;;;;;;;;;
2023/04/24 10:29:40;;;;;;;0.00;0.00;;;;;;;20.08;44.93;99740.38;6275680;22;20070;-80
2023/04/24 10:32:07;;;;;;;0.00;0.00;;;;;;;20.08;43.26;99732.06;6273454;22;20014;-77
2023/04/24 10:34:32;;;;;;;0.00;0.00;;;;;;;19.56;43.26;99725.97;6272322;22;20015;-79
2023/04/24 10:36:58;;;;;;;0.00;0.00;;;;;;;19.10;44.46;99730.69;6270751;22;20012;-77
2023/04/24 10:39:24;;;;;;;0.00;0.00;;;;;;;18.53;44.72;99735.72;6272901;22;20467;-77
2023/04/24 10:41:50;;;;;;;0.00;0.00;;;;;;;17.55;46.17;99724.59;6269281;22;19999;-77
2023/04/24 10:44:15;;;;;;;0.00;0.00;;;;;;;16.99;47.86;99725.34;6272144;22;20004;-77
2023/04/24 10:46:47;;;;;;;0.00;0.00;;;;;;;16.75;47.66;99731.34;6245945;22;20107;-78
2023/04/24 10:49:15;;;;;;;0.00;0.00;;;;;;;16.32;48.56;99715.56;6272567;22;20007;-78
2023/04/24 10:52:10;;;;;;;0.00;0.00;;;;;;;15.85;49.76;99705.84;6271619;22;20000;-78
2023/04/24 10:54:40;;;;;;;0.00;0.00;;;;;;;15.27;50.35;99712.34;6250249;22;20034;-78
2023/04/24 10:57:24;;;;;;;0.00;0.00;;;;;;;15.32;50.96;99723.25;6266880;22;20027;-78
2023/04/24 11:00:18;;;;;;;0.00;0.00;;;;;;;15.28;51.51;99725.00;6270920;22;20081;-77
2023/04/24 11:02:49;;;;;;;0.00;0.00;;;;;;;15.15;51.64;99699.16;6268685;22;20011;-78
2023/04/24 11:05:21;;;;;;;0.00;0.00;;;;;;;15.34;51.63;99721.00;6270964;22;20038;-77
2023/04/24 11:08:14;;;;;;;0.00;0.00;;;;;;;15.83;52.00;99718.34;6266592;22;20326;-78
2023/04/24 11:10:44;;;;;;;0.00;0.00;;;;;;;16.31;51.29;99727.72;6266596;22;20080;-77
2023/04/24 11:13:10;;;;;;;0.00;0.00;;;;;;;16.40;49.91;99714.75;6271710;22;19999;-78
2023/04/24 11:15:37;;;;;;;0.00;0.00;;;;;;;16.21;50.10;99702.06;6250610;22;20089;-77
2023/04/24 11:18:03;;;;;;;0.00;0.00;;;;;;;16.09;50.59;99698.31;6219889;22;20007;-78
2023/04/24 11:20:30;;;;;;;0.00;0.00;;;;;;;15.81;50.72;99696.63;6272501;22;20330;-77
2023/04/24 11:23:04;;;;;;;0.00;0.00;;;;;;;15.10;51.10;99691.03;6218182;22;20007;-77
2023/04/24 11:25:31;;;;;;;0.00;0.00;;;;;;;14.77;53.23;99705.06;6219857;22;20018;-77
2023/04/24 11:28:05;;;;;;;0.00;0.00;;;;;;;14.58;53.67;99702.44;6242324;22;20711;-78
2023/04/24 11:30:42;;;;;;;;;;;;;;;14.26;54.55;99718.78;6247905;22;20432;-79
2023/04/24 11:33:54;;;;;;;0.00;0.00;;;;;;;13.66;55.76;99711.50;6246033;22;19907;-77
2023/04/24 11:36:55;;;;;;;;;;;;;;;;;;;;;
2023/04/24 11:39:21;;;;;;;0.00;0.00;;;;;;;12.00;66.75;99744.47;6266625;22;20083;-77
2023/04/24 11:42:14;;;;;;;;;;;;;;;;;;;;;
2023/04/24 11:45:11;;;;;;;0.00;0.00;;;;;;;9.98;76.68;99727.09;6265926;22;20078;-77